Algoma Discovery — CFK9796 — position and weather

sailwx.info

Track history (hours):
 
Tides and Currents Weather Stations Pressure Air Temp Water Temp Dewpoint Dewpoint Depression Visibility Wind Speed Wind Dir Waves Ship Positions

Algoma Discovery

Last reported at 2017-Sep-24 10:00 UTC. Time now 2017-Sep-24 10:15 UTC.
Position N 46°56' W 085°29'.

Length 223 m; draft 7.4 m.

Type: Cargo ship. MMSI: 316018477.

Date/timePositionNaut miles runAvg speedWind from/ knotsBaromVisibWave heightAir tempDewpointWater temp
2017-Sep-24 10:00N 46°56' W 085°29'612.8
2017-Sep-24 09:30N 46°54' W 085°21'712.8
2017-Sep-24 08:59N 46°51' W 085°12'612.8
2017-Sep-24 08:30N 46°49' W 085°03'612.1
2017-Sep-24 08:00N 46°46' W 084°55'713.3
2017-Sep-24 07:30N 46°40' W 084°51'66 8.0
2017-Sep-23 23:14N 45°50' W 083°47'313.5
2017-Sep-23 22:59N 45°48' W 083°45'613.4
2017-Sep-23 22:30N 45°42' W 083°39'713.3
2017-Sep-23 22:00N 45°37' W 083°34'713.4
2017-Sep-23 21:30N 45°31' W 083°29'713.4
2017-Sep-23 21:00N 45°26' W 083°23'713.4
2017-Sep-23 20:29N 45°20' W 083°17'9414.5
2017-Sep-23 14:00N 43°54' W 082°24'122 5.1 200 / 5993.010.8 27.0
2017-Sep-22 14:00N 42°18' W 080°42'   140 / 31015.010.8 25.022.022.0
2017-Sep-19 10:20N 44°12' W 082°33'413.0
2017-Sep-19 10:00N 44°16' W 082°35'3712.9
2017-Sep-19 07:09N 44°51' W 082°52'212.9
2017-Sep-19 07:00N 44°52' W 082°52'612.9
2017-Sep-19 06:30N 44°59' W 082°55'612.9
2017-Sep-19 06:00N 45°05' W 082°58'612.8
2017-Sep-19 05:30N 45°11' W 083°01'912.9
2017-Sep-19 04:49N 45°19' W 083°05'512.7
2017-Sep-19 04:26N 45°23' W 083°09'1313.1
2017-Sep-19 03:25N 45°33' W 083°22'513.1
2017-Sep-19 03:00N 45°37' W 083°28'613.1
2017-Sep-19 02:30N 45°42' W 083°34'613.1
2017-Sep-19 02:00N 45°46' W 083°40'713.2
2017-Sep-19 01:29N 45°52' W 083°47'713.0
2017-Sep-19 00:59N 45°56' W 083°53'611.4
2017-Sep-19 00:26N 46°02' W 083°56'610.4
2017-Sep-18 23:52N 46°07' W 084°01'411.1
2017-Sep-18 23:28N 46°10' W 084°05'5 9.8
2017-Sep-18 22:59N 46°13' W 084°10'46 5.7
2017-Sep-18 15:00N 46°30' W 085°12'26112.3 020 / 6993.010.8 17.0
2017-Sep-17 17:53N 46°56' W 091°30'513.1
2017-Sep-17 17:30N 46°53' W 091°36'713.2
2017-Sep-17 17:00N 46°49' W 091°45'713.2
2017-Sep-17 16:30N 46°46' W 091°53'612.3
2017-Sep-17 16:00N 46°43' W 092°00'1 1.8
2017-Sep-17 15:30N 46°42' W 092°01'0 0.0
2017-Sep-17 15:00N 46°42' W 092°01'0 0.0
2017-Sep-17 14:24N 46°42' W 092°01'0 0.0
2017-Sep-17 14:00N 46°42' W 092°01'0 0.0
2017-Sep-17 13:30N 46°42' W 092°01'0 0.0
2017-Sep-17 13:00N 46°42' W 092°01'0 0.0
2017-Sep-17 12:30N 46°42' W 092°01'0 0.0
2017-Sep-17 12:00N 46°42' W 092°01'0 0.0
2017-Sep-17 11:24N 46°42' W 092°01'0 0.0
2017-Sep-17 11:00N 46°42' W 092°01'0 0.0
2017-Sep-17 10:24N 46°42' W 092°01'0 0.0
2017-Sep-17 10:00N 46°42' W 092°01'0 0.0
2017-Sep-17 09:24N 46°42' W 092°01'0 0.0
2017-Sep-17 08:54N 46°42' W 092°01'0 0.0
2017-Sep-17 08:18N 46°42' W 092°01'0 0.0
2017-Sep-17 08:01N 46°42' W 092°01'0 0.0
2017-Sep-17 07:31N 46°42' W 092°01'0 0.0
2017-Sep-17 07:01N 46°42' W 092°01'0 0.0
2017-Sep-17 06:30N 46°42' W 092°01'0 0.0
2017-Sep-17 06:00N 46°42' W 092°01'0 0.0
2017-Sep-17 05:18N 46°42' W 092°01'0 0.0
2017-Sep-17 04:48N 46°42' W 092°01'0 0.0
2017-Sep-17 04:30N 46°42' W 092°01'0 0.0
2017-Sep-17 04:00N 46°42' W 092°01'1 1.4
2017-Sep-17 03:31N 46°43' W 092°01'3 4.8
2017-Sep-17 02:59N 46°45' W 092°00'0 0.6
2017-Sep-17 02:26N 46°45' W 092°01'0 0.0
2017-Sep-17 01:56N 46°45' W 092°01'0 0.1
2017-Sep-17 01:26N 46°45' W 092°01'0 0.0
2017-Sep-17 00:56N 46°45' W 092°01'0 0.0
2017-Sep-17 00:26N 46°45' W 092°01'0 0.0
2017-Sep-16 23:59N 46°45' W 092°01'0 0.1
2017-Sep-16 23:29N 46°45' W 092°01'0 0.0
2017-Sep-16 22:59N 46°45' W 092°01'0 0.0
2017-Sep-16 22:29N 46°45' W 092°01'0 0.0
2017-Sep-16 21:56N 46°45' W 092°01'0 0.0
2017-Sep-16 21:29N 46°45' W 092°01'0 0.0
2017-Sep-16 20:59N 46°45' W 092°01'0 0.0
2017-Sep-16 20:29N 46°45' W 092°01'0 0.0
2017-Sep-16 19:59N 46°45' W 092°01'0 0.1
2017-Sep-16 19:29N 46°45' W 092°01'0 0.0
2017-Sep-16 18:59N 46°45' W 092°01'0 0.0
2017-Sep-16 18:29N 46°45' W 092°01'0 0.0
2017-Sep-16 17:59N 46°45' W 092°01'0 0.0
2017-Sep-16 17:29N 46°45' W 092°01'0 0.0
2017-Sep-16 16:50N 46°45' W 092°01'0 0.0
2017-Sep-16 16:20N 46°45' W 092°01'0 0.0
2017-Sep-16 15:53N 46°45' W 092°01'0 0.0
2017-Sep-16 15:23N 46°45' W 092°01'0 0.0
2017-Sep-16 14:53N 46°45' W 092°01'0 0.0
2017-Sep-16 14:23N 46°45' W 092°01'0 0.0
2017-Sep-16 13:53N 46°45' W 092°01'0 0.0
2017-Sep-16 13:23N 46°45' W 092°01'1538.5
2017-Sep-16 13:00N 46°30' W 092°00'1550.0 060 / 10982.0 5.4 16.0
2017-Sep-16 12:41N 46°45' W 092°01'0 0.0
2017-Sep-16 12:26N 46°45' W 092°01'0 0.0
2017-Sep-16 11:56N 46°45' W 092°01'0 0.0
2017-Sep-16 11:26N 46°45' W 092°01'0 0.0
2017-Sep-16 10:56N 46°45' W 092°01'0 0.0
2017-Sep-16 10:26N 46°45' W 092°01'0 0.0
2017-Sep-16 09:59N 46°45' W 092°01'0 0.0
2017-Sep-16 09:29N 46°45' W 092°01'0 0.0
2017-Sep-16 08:59N 46°45' W 092°01'0 0.0
2017-Sep-16 08:29N 46°45' W 092°01'0 0.0
2017-Sep-16 07:59N 46°45' W 092°01'0 0.0
2017-Sep-16 07:29N 46°45' W 092°01'0 0.0
2017-Sep-16 06:59N 46°45' W 092°01'0 0.0
2017-Sep-16 06:29N 46°45' W 092°01'0 0.0
2017-Sep-16 05:59N 46°45' W 092°01'0 0.0
2017-Sep-16 05:29N 46°45' W 092°01'0 0.0
2017-Sep-16 04:59N 46°45' W 092°01'0 0.0
2017-Sep-16 04:29N 46°45' W 092°01'0 0.0
2017-Sep-16 03:50N 46°45' W 092°01'0 0.0
2017-Sep-16 03:29N 46°45' W 092°01'0 0.0
2017-Sep-16 02:50N 46°45' W 092°01'0 0.0
2017-Sep-16 02:20N 46°45' W 092°01'0 0.0
2017-Sep-16 01:53N 46°45' W 092°01'0 0.0
2017-Sep-16 01:23N 46°45' W 092°01'0 0.0
2017-Sep-16 00:53N 46°45' W 092°01'0 0.0
2017-Sep-16 00:23N 46°45' W 092°01'0 0.0
2017-Sep-15 23:53N 46°45' W 092°01'0 0.0
2017-Sep-15 23:23N 46°45' W 092°01'0 0.0
2017-Sep-15 22:56N 46°45' W 092°01'0 0.0
2017-Sep-15 22:26N 46°45' W 092°01'0 0.0
2017-Sep-15 21:56N 46°45' W 092°01'0 0.0
2017-Sep-15 21:23N 46°45' W 092°01'0 0.0
2017-Sep-15 20:56N 46°45' W 092°01'0 0.0
2017-Sep-15 20:26N 46°45' W 092°01'0 0.0
2017-Sep-15 19:59N 46°45' W 092°01'0 0.0
2017-Sep-15 19:29N 46°45' W 092°01'0 0.1
2017-Sep-15 18:59N 46°45' W 092°01'0 0.0
2017-Sep-15 18:29N 46°45' W 092°01'0 0.0
2017-Sep-15 17:59N 46°45' W 092°01'0 0.0
2017-Sep-15 17:29N 46°45' W 092°01'0 0.0
2017-Sep-15 16:59N 46°45' W 092°01'0 0.0
2017-Sep-15 16:26N 46°45' W 092°01'0 0.0
2017-Sep-15 15:59N 46°45' W 092°01'0 0.0
2017-Sep-15 15:17N 46°45' W 092°01'0 0.0
2017-Sep-15 14:47N 46°45' W 092°01'0 0.0
2017-Sep-15 14:29N 46°45' W 092°01'0 0.0
2017-Sep-15 00:35N 46°45' W 092°01'0 0.0
2017-Sep-15 00:29N 46°45' W 092°01'0 0.0
2017-Sep-14 23:59N 46°45' W 092°01'0 0.0
2017-Sep-14 23:20N 46°45' W 092°01'0 0.0
2017-Sep-14 23:00N 46°45' W 092°01'0 0.0
2017-Sep-14 22:30N 46°45' W 092°01'0 0.0
2017-Sep-14 22:01N 46°45' W 092°01'0 0.0
2017-Sep-14 21:31N 46°45' W 092°01'0 0.6
2017-Sep-14 21:00N 46°45' W 092°00'510.8
2017-Sep-14 20:31N 46°47' W 091°53'713.7
2017-Sep-14 20:01N 46°50' W 091°44'6512.9
2017-Sep-14 15:00N 47°06' W 090°12'   980.0 5.4 20.0
Track history (hours):
 
Tides and Currents Weather Stations Pressure Air Temp Water Temp Dewpoint Dewpoint Depression Visibility Wind Speed Wind Dir Waves Ship Positions

Algoma Discovery

Last reported at 2017-Sep-24 10:00 UTC. Time now 2017-Sep-24 10:15 UTC.
Position N 46°56' W 085°29'.

Length 223 m; draft 7.4 m.

Type: Cargo ship. MMSI: 316018477.

Date/timePositionNaut miles runAvg speedWind from/ knotsBaromVisibWave heightAir tempDewpointWater temp
2017-Sep-24 10:00N 46°56' W 085°29'612.8
2017-Sep-24 09:30N 46°54' W 085°21'712.8
2017-Sep-24 08:59N 46°51' W 085°12'612.8
2017-Sep-24 08:30N 46°49' W 085°03'612.1
2017-Sep-24 08:00N 46°46' W 084°55'713.3
2017-Sep-24 07:30N 46°40' W 084°51'66 8.0
2017-Sep-23 23:14N 45°50' W 083°47'313.5
2017-Sep-23 22:59N 45°48' W 083°45'613.4
2017-Sep-23 22:30N 45°42' W 083°39'713.3
2017-Sep-23 22:00N 45°37' W 083°34'713.4
2017-Sep-23 21:30N 45°31' W 083°29'713.4
2017-Sep-23 21:00N 45°26' W 083°23'713.4
2017-Sep-23 20:29N 45°20' W 083°17'9414.5
2017-Sep-23 14:00N 43°54' W 082°24'122 5.1 200 / 5993.010.8 27.0
2017-Sep-22 14:00N 42°18' W 080°42'   140 / 31015.010.8 25.022.022.0
2017-Sep-19 10:20N 44°12' W 082°33'413.0
2017-Sep-19 10:00N 44°16' W 082°35'3712.9
2017-Sep-19 07:09N 44°51' W 082°52'212.9
2017-Sep-19 07:00N 44°52' W 082°52'612.9
2017-Sep-19 06:30N 44°59' W 082°55'612.9
2017-Sep-19 06:00N 45°05' W 082°58'612.8
2017-Sep-19 05:30N 45°11' W 083°01'912.9
2017-Sep-19 04:49N 45°19' W 083°05'512.7
2017-Sep-19 04:26N 45°23' W 083°09'1313.1
2017-Sep-19 03:25N 45°33' W 083°22'513.1
2017-Sep-19 03:00N 45°37' W 083°28'613.1
2017-Sep-19 02:30N 45°42' W 083°34'613.1
2017-Sep-19 02:00N 45°46' W 083°40'713.2
2017-Sep-19 01:29N 45°52' W 083°47'713.0
2017-Sep-19 00:59N 45°56' W 083°53'611.4
2017-Sep-19 00:26N 46°02' W 083°56'610.4
2017-Sep-18 23:52N 46°07' W 084°01'411.1
2017-Sep-18 23:28N 46°10' W 084°05'5 9.8
2017-Sep-18 22:59N 46°13' W 084°10'46 5.7
2017-Sep-18 15:00N 46°30' W 085°12'26112.3 020 / 6993.010.8 17.0
2017-Sep-17 17:53N 46°56' W 091°30'513.1
2017-Sep-17 17:30N 46°53' W 091°36'713.2
2017-Sep-17 17:00N 46°49' W 091°45'713.2
2017-Sep-17 16:30N 46°46' W 091°53'612.3
2017-Sep-17 16:00N 46°43' W 092°00'1 1.8
2017-Sep-17 15:30N 46°42' W 092°01'0 0.0
2017-Sep-17 15:00N 46°42' W 092°01'0 0.0
2017-Sep-17 14:24N 46°42' W 092°01'0 0.0
2017-Sep-17 14:00N 46°42' W 092°01'0 0.0
2017-Sep-17 13:30N 46°42' W 092°01'0 0.0
2017-Sep-17 13:00N 46°42' W 092°01'0 0.0
2017-Sep-17 12:30N 46°42' W 092°01'0 0.0
2017-Sep-17 12:00N 46°42' W 092°01'0 0.0
2017-Sep-17 11:24N 46°42' W 092°01'0 0.0
2017-Sep-17 11:00N 46°42' W 092°01'0 0.0
2017-Sep-17 10:24N 46°42' W 092°01'0 0.0
2017-Sep-17 10:00N 46°42' W 092°01'0 0.0
2017-Sep-17 09:24N 46°42' W 092°01'0 0.0
2017-Sep-17 08:54N 46°42' W 092°01'0 0.0
2017-Sep-17 08:18N 46°42' W 092°01'0 0.0
2017-Sep-17 08:01N 46°42' W 092°01'0 0.0
2017-Sep-17 07:31N 46°42' W 092°01'0 0.0
2017-Sep-17 07:01N 46°42' W 092°01'0 0.0
2017-Sep-17 06:30N 46°42' W 092°01'0 0.0
2017-Sep-17 06:00N 46°42' W 092°01'0 0.0
2017-Sep-17 05:18N 46°42' W 092°01'0 0.0
2017-Sep-17 04:48N 46°42' W 092°01'0 0.0
2017-Sep-17 04:30N 46°42' W 092°01'0 0.0
2017-Sep-17 04:00N 46°42' W 092°01'1 1.4
2017-Sep-17 03:31N 46°43' W 092°01'3 4.8
2017-Sep-17 02:59N 46°45' W 092°00'0 0.6
2017-Sep-17 02:26N 46°45' W 092°01'0 0.0
2017-Sep-17 01:56N 46°45' W 092°01'0 0.1
2017-Sep-17 01:26N 46°45' W 092°01'0 0.0
2017-Sep-17 00:56N 46°45' W 092°01'0 0.0
2017-Sep-17 00:26N 46°45' W 092°01'0 0.0
2017-Sep-16 23:59N 46°45' W 092°01'0 0.1
2017-Sep-16 23:29N 46°45' W 092°01'0 0.0
2017-Sep-16 22:59N 46°45' W 092°01'0 0.0
2017-Sep-16 22:29N 46°45' W 092°01'0 0.0
2017-Sep-16 21:56N 46°45' W 092°01'0 0.0
2017-Sep-16 21:29N 46°45' W 092°01'0 0.0
2017-Sep-16 20:59N 46°45' W 092°01'0 0.0
2017-Sep-16 20:29N 46°45' W 092°01'0 0.0
2017-Sep-16 19:59N 46°45' W 092°01'0 0.1
2017-Sep-16 19:29N 46°45' W 092°01'0 0.0
2017-Sep-16 18:59N 46°45' W 092°01'0 0.0
2017-Sep-16 18:29N 46°45' W 092°01'0 0.0
2017-Sep-16 17:59N 46°45' W 092°01'0 0.0
2017-Sep-16 17:29N 46°45' W 092°01'0 0.0
2017-Sep-16 16:50N 46°45' W 092°01'0 0.0
2017-Sep-16 16:20N 46°45' W 092°01'0 0.0
2017-Sep-16 15:53N 46°45' W 092°01'0 0.0
2017-Sep-16 15:23N 46°45' W 092°01'0 0.0
2017-Sep-16 14:53N 46°45' W 092°01'0 0.0
2017-Sep-16 14:23N 46°45' W 092°01'0 0.0
2017-Sep-16 13:53N 46°45' W 092°01'0 0.0
2017-Sep-16 13:23N 46°45' W 092°01'1538.5
2017-Sep-16 13:00N 46°30' W 092°00'1550.0 060 / 10982.0 5.4 16.0
2017-Sep-16 12:41N 46°45' W 092°01'0 0.0
2017-Sep-16 12:26N 46°45' W 092°01'0 0.0
2017-Sep-16 11:56N 46°45' W 092°01'0 0.0
2017-Sep-16 11:26N 46°45' W 092°01'0 0.0
2017-Sep-16 10:56N 46°45' W 092°01'0 0.0
2017-Sep-16 10:26N 46°45' W 092°01'0 0.0
2017-Sep-16 09:59N 46°45' W 092°01'0 0.0
2017-Sep-16 09:29N 46°45' W 092°01'0 0.0
2017-Sep-16 08:59N 46°45' W 092°01'0 0.0
2017-Sep-16 08:29N 46°45' W 092°01'0 0.0
2017-Sep-16 07:59N 46°45' W 092°01'0 0.0
2017-Sep-16 07:29N 46°45' W 092°01'0 0.0
2017-Sep-16 06:59N 46°45' W 092°01'0 0.0
2017-Sep-16 06:29N 46°45' W 092°01'0 0.0
2017-Sep-16 05:59N 46°45' W 092°01'0 0.0
2017-Sep-16 05:29N 46°45' W 092°01'0 0.0
2017-Sep-16 04:59N 46°45' W 092°01'0 0.0
2017-Sep-16 04:29N 46°45' W 092°01'0 0.0
2017-Sep-16 03:50N 46°45' W 092°01'0 0.0
2017-Sep-16 03:29N 46°45' W 092°01'0 0.0
2017-Sep-16 02:50N 46°45' W 092°01'0 0.0
2017-Sep-16 02:20N 46°45' W 092°01'0 0.0
2017-Sep-16 01:53N 46°45' W 092°01'0 0.0
2017-Sep-16 01:23N 46°45' W 092°01'0 0.0
2017-Sep-16 00:53N 46°45' W 092°01'0 0.0
2017-Sep-16 00:23N 46°45' W 092°01'0 0.0
2017-Sep-15 23:53N 46°45' W 092°01'0 0.0
2017-Sep-15 23:23N 46°45' W 092°01'0 0.0
2017-Sep-15 22:56N 46°45' W 092°01'0 0.0
2017-Sep-15 22:26N 46°45' W 092°01'0 0.0
2017-Sep-15 21:56N 46°45' W 092°01'0 0.0
2017-Sep-15 21:23N 46°45' W 092°01'0 0.0
2017-Sep-15 20:56N 46°45' W 092°01'0 0.0
2017-Sep-15 20:26N 46°45' W 092°01'0 0.0
2017-Sep-15 19:59N 46°45' W 092°01'0 0.0
2017-Sep-15 19:29N 46°45' W 092°01'0 0.1
2017-Sep-15 18:59N 46°45' W 092°01'0 0.0
2017-Sep-15 18:29N 46°45' W 092°01'0 0.0
2017-Sep-15 17:59N 46°45' W 092°01'0 0.0
2017-Sep-15 17:29N 46°45' W 092°01'0 0.0
2017-Sep-15 16:59N 46°45' W 092°01'0 0.0
2017-Sep-15 16:26N 46°45' W 092°01'0 0.0
2017-Sep-15 15:59N 46°45' W 092°01'0 0.0
2017-Sep-15 15:17N 46°45' W 092°01'0 0.0
2017-Sep-15 14:47N 46°45' W 092°01'0 0.0
2017-Sep-15 14:29N 46°45' W 092°01'0 0.0
2017-Sep-15 00:35N 46°45' W 092°01'0 0.0
2017-Sep-15 00:29N 46°45' W 092°01'0 0.0
2017-Sep-14 23:59N 46°45' W 092°01'0 0.0
2017-Sep-14 23:20N 46°45' W 092°01'0 0.0
2017-Sep-14 23:00N 46°45' W 092°01'0 0.0
2017-Sep-14 22:30N 46°45' W 092°01'0 0.0
2017-Sep-14 22:01N 46°45' W 092°01'0 0.0
2017-Sep-14 21:31N 46°45' W 092°01'0 0.6
2017-Sep-14 21:00N 46°45' W 092°00'510.8
2017-Sep-14 20:31N 46°47' W 091°53'713.7
2017-Sep-14 20:01N 46°50' W 091°44'6512.9
2017-Sep-14 15:00N 47°06' W 090°12'   980.0 5.4 20.0

Dump ship's entire track history